Time;durP1;ratioP1;P1;durP2;ratioP2;P2;SDS_P1;SDS_P2;PMS_P1;PMS_P2;Temp;Humidity;BMP_temperature;BMP_pressure;BME280_temperature;BME280_humidity;BME280_pressure;Samples;Min_cycle;Max_cycle;Signal;HPM_P1;HPM_P2
2024/01/09 00:00:57;;;;;;;;;67.00;51.00;;;;;-6.90;100.00;100488.34;6183724;28;98759;-62
2024/01/09 00:04:00;;;;;;;;;70.00;54.50;;;;;-6.96;100.00;100483.41;6207370;28;96955;-63
2024/01/09 00:07:03;;;;;;;;;71.40;57.40;;;;;-7.20;100.00;100470.53;6208347;28;96959;-63
2024/01/09 00:10:10;;;;;;;;;71.00;53.50;;;;;-7.09;100.00;100494.47;6202310;28;96370;-62
2024/01/09 00:13:13;;;;;;;;;68.00;53.40;;;;;-7.13;100.00;100498.13;6189308;28;96815;-63
2024/01/09 00:16:16;;;;;;;;;71.67;55.00;;;;;-7.16;100.00;100493.06;6206159;28;99057;-62
2024/01/09 00:19:19;;;;;;;;;73.00;59.00;;;;;-7.37;100.00;100507.13;6215009;28;96344;-62
2024/01/09 00:22:22;;;;;;;;;67.60;52.00;;;;;-7.44;100.00;100510.97;6214990;28;96358;-62
2024/01/09 00:25:28;;;;;;;;;74.40;55.40;;;;;-7.42;100.00;100506.47;6212996;28;96493;-62
2024/01/09 00:28:31;;;;;;;;;72.75;55.25;;;;;-7.50;100.00;100512.06;6212798;28;99322;-61
2024/01/09 00:31:34;;;;;;;;;72.00;55.00;;;;;-7.45;100.00;100519.72;6211565;28;96706;-61
2024/01/09 00:34:37;;;;;;;;;66.50;51.75;;;;;-7.43;100.00;100526.59;6214281;28;98259;-60
2024/01/09 00:37:40;;;;;;;;;72.00;56.60;;;;;-7.50;100.00;100524.31;6213069;28;96385;-60
2024/01/09 00:40:45;;;;;;;;;71.00;53.00;;;;;-7.60;100.00;100529.13;6211850;28;96710;-60
2024/01/09 00:43:48;;;;;;;;;69.67;52.00;;;;;-7.66;100.00;100524.13;6189801;28;97577;-60
2024/01/09 00:46:51;;;;;;;;;69.00;54.00;;;;;-7.64;100.00;100542.41;6205882;28;96463;-60
2024/01/09 00:49:54;;;;;;;;;69.80;52.20;;;;;-7.78;100.00;100540.41;6188477;28;96297;-60
2024/01/09 00:52:57;;;;;;;;;67.20;51.00;;;;;-7.72;100.00;100545.34;6187903;28;96654;-60
2024/01/09 00:56:02;;;;;;;;;67.00;51.00;;;;;-7.85;100.00;100549.44;6206487;28;96567;-60
2024/01/09 00:59:05;;;;;;;;;66.80;51.80;;;;;-7.92;100.00;100553.25;6212400;28;96471;-60
2024/01/09 01:02:08;;;;;;;;;66.60;51.20;;;;;-7.94;100.00;100548.06;6212324;28;97114;-60
2024/01/09 01:05:14;;;;;;;;;67.00;51.00;;;;;-7.98;100.00;100551.72;6213357;28;96492;-61
2024/01/09 01:08:17;;;;;;;;;67.25;52.00;;;;;-7.93;100.00;100546.28;6200815;28;96560;-61
2024/01/09 01:11:22;;;;;;;;;65.50;50.00;;;;;-7.91;100.00;100547.91;6211837;28;96772;-61
2024/01/09 01:14:25;;;;;;;;;65.80;51.00;;;;;-7.96;100.00;100542.03;6213656;28;96355;-61
2024/01/09 01:17:28;;;;;;;;;64.40;49.00;;;;;-7.97;100.00;100542.97;6175387;28;96885;-61
2024/01/09 01:20:31;;;;;;;;;65.00;49.25;;;;;-7.90;100.00;100540.91;6188977;28;96496;-61
2024/01/09 01:23:34;;;;;;;;;66.60;50.00;;;;;-7.93;100.00;100541.06;6187778;28;96439;-61
2024/01/09 01:26:39;;;;;;;;;62.80;50.00;;;;;-8.08;100.00;100542.56;6194877;28;96437;-61
2024/01/09 01:29:43;;;;;;;;;63.00;47.80;;;;;-8.01;100.00;100546.59;6212098;28;96342;-61
2024/01/09 01:32:46;;;;;;;;;63.00;48.00;;;;;-7.90;100.00;100554.84;6218582;28;96811;-61
2024/01/09 01:35:49;;;;;;;;;64.40;50.00;;;;;-7.92;100.00;100542.75;6237839;27;96428;-61
2024/01/09 01:38:52;;;;;;;;;63.40;49.40;;;;;-7.84;100.00;100545.91;6238300;28;96676;-63
2024/01/09 01:41:57;;;;;;;;;62.60;49.00;;;;;-7.82;100.00;100548.47;6231127;28;96394;-63
2024/01/09 01:45:00;;;;;;;;;65.25;48.25;;;;;-7.88;100.00;100555.66;6222373;28;96406;-63
2024/01/09 01:48:04;;;;;;;;;61.40;48.00;;;;;-7.88;100.00;100555.66;6235458;28;96340;-63
2024/01/09 01:51:07;;;;;;;;;61.40;47.20;;;;;-7.89;100.00;100556.56;6194646;28;98638;-62
2024/01/09 01:54:12;;;;;;;;;65.00;50.00;;;;;-7.95;100.00;100558.59;6225615;28;97580;-63
2024/01/09 01:57:17;;;;;;;;;63.60;50.40;;;;;-7.98;100.00;100569.19;6221986;28;96392;-63
2024/01/09 02:00:22;;;;;;;;;64.00;48.60;;;;;-8.05;100.00;100562.50;6237689;28;96622;-61
2024/01/09 02:03:26;;;;;;;;;61.00;47.00;;;;;-8.03;100.00;100563.31;6291904;22;98377;-56
2024/01/09 02:10:45;;;;;;;;;61.60;48.00;;;;;-7.96;100.00;100562.97;710960;22;99182;-78
2024/01/09 02:13:50;;;;;;;;;62.00;48.00;;;;;-8.74;100.00;100419.84;6209865;28;97716;-80
2024/01/09 02:16:56;;;;;;;;;61.25;48.00;;;;;-8.12;100.00;100543.59;6220049;28;96881;-82
2024/01/09 02:20:02;;;;;;;;;61.75;48.00;;;;;-8.86;100.00;100397.69;6211833;28;96362;-80
2024/01/09 02:23:05;;;;;;;;;61.80;48.00;;;;;-7.85;100.00;100567.75;6212036;28;96900;-80
2024/01/09 02:26:11;;;;;;;;;64.00;49.25;;;;;-8.18;100.00;100530.78;6225088;28;96405;-80
2024/01/09 02:29:38;;;;;;;;;69.00;52.00;;;;;-9.15;100.00;100400.63;6213317;28;97488;-79
2024/01/09 02:32:43;;;;;;;;;65.00;50.00;;;;;-7.96;100.00;100536.78;6213654;28;96873;-80
2024/01/09 02:35:47;;;;;;;;;65.00;51.00;;;;;-9.22;100.00;100371.28;6239114;27;97009;-81
2024/01/09 02:38:50;;;;;;;;;62.00;48.00;;;;;-8.08;100.00;100549.56;6173643;28;96393;-79
2024/01/09 02:41:54;;;;;;;;;65.25;50.00;;;;;-9.15;100.00;100408.47;6181698;28;98607;-80
2024/01/09 02:44:57;;;;;;;;;64.20;50.20;;;;;-9.10;100.00;100391.69;6207249;28;97252;-80
2024/01/09 02:48:02;;;;;;;;;66.80;50.00;;;;;-9.07;100.00;100407.25;6188303;28;96356;-80
2024/01/09 02:51:05;;;;;;;;;70.00;52.20;;;;;-8.74;100.00;100430.28;6187477;28;96843;-80
2024/01/09 02:54:09;;;;;;;;;71.00;55.00;;;;;-8.11;100.00;100554.94;6204593;28;96864;-85
2024/01/09 02:57:13;;;;;;;;;68.25;51.25;;;;;-8.58;100.00;100510.66;6185367;28;97020;-82
2024/01/09 03:00:17;;;;;;;;;68.40;52.20;;;;;-8.78;100.00;100542.81;6204820;28;96945;-80
2024/01/09 03:03:21;;;;;;;;;67.00;52.60;;;;;-8.77;100.00;100502.72;6187134;28;96610;-80
2024/01/09 03:06:25;;;;;;;;;66.80;52.00;;;;;-8.60;100.00;100527.34;6187128;28;96688;-80
2024/01/09 03:09:28;;;;;;;;;71.00;54.00;;;;;-9.54;100.00;100430.00;6186960;28;96544;-79
2024/01/09 03:12:32;;;;;;;;;69.75;54.50;;;;;-8.80;100.00;100518.53;6218973;28;96528;-79
2024/01/09 03:15:35;;;;;;;;;72.20;54.60;;;;;-8.58;100.00;100542.03;6234810;28;97229;-81
2024/01/09 03:18:40;;;;;;;;;67.40;51.60;;;;;-10.18;100.00;100294.19;6218122;28;96611;-82
2024/01/09 03:21:44;;;;;;;;;68.40;52.00;;;;;-9.46;100.00;100414.03;6220586;28;96722;-81
2024/01/09 03:24:47;;;;;;;;;71.20;55.00;;;;;-8.79;100.00;100530.66;6221025;28;96654;-82
2024/01/09 03:27:52;;;;;;;;;67.00;51.00;;;;;-8.82;100.00;100572.63;6217473;28;96331;-81
2024/01/09 03:30:56;;;;;;;;;67.00;51.20;;;;;-9.06;100.00;100508.22;6216436;28;96729;-84
2024/01/09 03:34:01;;;;;;;;;66.40;51.40;;;;;-10.14;100.00;100342.66;6200606;28;96994;-81
2024/01/09 03:37:06;;;;;;;;;68.50;51.25;;;;;-9.46;100.00;100503.66;6215015;28;96459;-82
2024/01/09 03:40:11;;;;;;;;;67.00;52.00;;;;;-10.30;100.00;100385.88;6195221;28;97113;-83
2024/01/09 03:43:14;;;;;;;;;67.25;51.75;;;;;-10.20;100.00;100399.44;6211396;28;97620;-82
2024/01/09 03:46:18;;;;;;;;;68.60;52.60;;;;;-9.21;100.00;100553.22;6236155;28;96592;-82
2024/01/09 03:49:23;;;;;;;;;67.00;51.00;;;;;-10.17;100.00;100422.81;6233232;28;96743;-82
2024/01/09 03:52:26;;;;;;;;;64.40;50.40;;;;;-9.51;100.00;100523.00;6239051;28;96417;-82
2024/01/09 03:55:29;;;;;;;;;63.60;50.00;;;;;-11.20;100.00;100218.91;6238839;28;96802;-82
2024/01/09 03:58:33;;;;;;;;;69.20;53.20;;;;;-9.75;100.00;100514.31;6238647;28;96831;-82
2024/01/09 04:01:40;;;;;;;;;60.00;48.00;;;;;-9.67;100.00;100512.25;6233740;28;97031;-82
2024/01/09 04:04:44;;;;;;;;;62.25;48.00;;;;;-9.37;100.00;100626.03;6224805;28;96693;-82
2024/01/09 04:07:48;;;;;;;;;66.00;50.00;;;;;-9.83;100.00;100491.13;6225758;28;96975;-82
2024/01/09 04:10:51;;;;;;;;;64.80;50.40;;;;;-9.70;100.00;100535.88;6225395;27;96751;-82
2024/01/09 04:13:55;;;;;;;;;61.80;48.40;;;;;-10.70;100.00;100368.19;6240025;27;97109;-82
2024/01/09 04:16:58;;;;;;;;;64.60;49.60;;;;;-9.91;100.00;100539.22;6227063;28;96861;-83
2024/01/09 04:20:04;;;;;;;;;67.00;51.20;;;;;-9.94;100.00;100508.03;6225019;28;96837;-82
2024/01/09 04:23:07;;;;;;;;;63.40;49.20;;;;;-10.90;100.00;100399.28;6203988;28;96864;-83
2024/01/09 04:26:11;;;;;;;;;66.00;50.00;;;;;-9.55;100.00;100586.69;7011266;22;99329;-58
2024/01/09 04:29:14;;;;;;;;;65.00;49.40;;;;;-9.54;100.00;100588.41;6236338;28;98701;-58
2024/01/09 04:32:17;;;;;;;;;64.50;49.00;;;;;-9.73;100.00;100577.75;6241850;28;96377;-58
2024/01/09 04:35:22;;;;;;;;;62.00;49.00;;;;;-9.90;100.00;100580.94;6237751;28;98636;-58
2024/01/09 04:38:25;;;;;;;;;63.40;49.60;;;;;-9.95;100.00;100579.38;6230142;27;98454;-58
2024/01/09 04:41:28;;;;;;;;;64.75;48.00;;;;;-10.09;100.00;100585.94;6241257;28;96356;-57
2024/01/09 04:44:32;;;;;;;;;62.80;48.00;;;;;-10.07;100.00;100588.50;6243004;28;97064;-58
2024/01/09 04:47:35;;;;;;;;;62.00;47.00;;;;;-10.11;100.00;100598.16;6243355;27;96912;-58
2024/01/09 04:50:40;;;;;;;;;62.50;47.75;;;;;-10.08;100.00;100594.59;6246203;27;96363;-58
2024/01/09 04:53:43;;;;;;;;;63.00;49.00;;;;;-10.01;100.00;100597.84;6246383;28;96618;-57
2024/01/09 04:56:46;;;;;;;;;62.00;49.25;;;;;-9.98;100.00;100605.59;6246316;28;96416;-57
2024/01/09 04:59:50;;;;;;;;;61.00;46.00;;;;;-10.01;100.00;100609.13;6245413;28;100133;-57
2024/01/09 05:02:53;;;;;;;;;60.00;45.40;;;;;-9.93;100.00;100609.75;6235197;28;96870;-57
2024/01/09 05:05:58;;;;;;;;;63.00;49.00;;;;;-10.08;100.00;100615.47;6242936;28;96690;-57
2024/01/09 05:09:02;;;;;;;;;60.20;46.20;;;;;-10.13;100.00;100609.56;6253087;27;96827;-57
2024/01/09 05:12:05;;;;;;;;;61.60;46.00;;;;;-10.24;100.00;100601.25;6232111;28;96450;-57
2024/01/09 05:15:09;;;;;;;;;60.20;47.40;;;;;-10.35;100.00;100603.34;6243908;28;96837;-57
2024/01/09 05:18:12;;;;;;;;;60.75;45.25;;;;;-10.34;100.00;100615.47;6227178;28;96437;-58
2024/01/09 05:21:17;;;;;;;;;60.25;47.00;;;;;-10.25;100.00;100617.78;6235967;28;97638;-58
2024/01/09 05:24:20;;;;;;;;;58.60;45.00;;;;;-10.21;100.00;100622.00;6229652;28;96499;-58
2024/01/09 05:27:23;;;;;;;;;57.00;44.60;;;;;-10.11;100.00;100632.06;6254164;27;98841;-57
2024/01/09 05:30:26;;;;;;;;;60.40;46.00;;;;;-9.98;100.00;100629.06;6244849;27;96764;-57
2024/01/09 05:33:29;;;;;;;;;57.40;45.00;;;;;-10.00;100.00;100639.53;6231624;27;97082;-58
2024/01/09 05:36:34;;;;;;;;;58.80;45.00;;;;;-10.08;100.00;100636.34;6253975;27;97404;-56
2024/01/09 05:39:37;;;;;;;;;62.20;46.80;;;;;-10.09;100.00;100637.22;6253394;27;96448;-56
2024/01/09 05:42:40;;;;;;;;;59.75;45.75;;;;;-10.12;100.00;100634.75;6253555;27;96423;-56
2024/01/09 05:45:43;;;;;;;;;62.00;46.00;;;;;-10.02;100.00;100641.38;6243188;27;96392;-56
2024/01/09 05:48:46;;;;;;;;;60.00;47.80;;;;;-10.03;100.00;100644.88;6268159;27;96415;-55
2024/01/09 05:51:52;;;;;;;;;63.00;49.00;;;;;-10.07;100.00;100647.63;6246910;27;96537;-56
2024/01/09 05:54:55;;;;;;;;;61.00;47.50;;;;;-9.98;100.00;100652.53;6251559;27;96544;-56
2024/01/09 05:57:58;;;;;;;;;61.80;46.40;;;;;-9.94;100.00;100659.38;6237364;27;96648;-56
2024/01/09 06:01:01;;;;;;;;;64.00;49.20;;;;;-9.87;100.00;100638.22;6258900;27;96486;-55
2024/01/09 06:04:05;;;;;;;;;62.20;47.00;;;;;-9.68;100.00;100654.16;6256209;27;97299;-56
2024/01/09 06:07:10;;;;;;;;;62.00;47.25;;;;;-9.59;100.00;100658.19;6251631;27;96332;-56
2024/01/09 06:10:13;;;;;;;;;62.00;48.00;;;;;-9.46;100.00;100659.47;6249473;27;96397;-56
2024/01/09 06:13:16;;;;;;;;;62.50;46.50;;;;;-9.42;100.00;100664.53;6243738;27;98445;-56
2024/01/09 06:16:19;;;;;;;;;60.60;46.00;;;;;-9.43;100.00;100675.88;6252312;27;96891;-56
2024/01/09 06:19:22;;;;;;;;;60.60;47.80;;;;;-9.52;100.00;100641.41;6264578;27;96766;-56
2024/01/09 06:22:27;;;;;;;;;62.75;48.50;;;;;-9.42;100.00;100672.34;6263241;27;96561;-56
2024/01/09 06:25:30;;;;;;;;;60.00;46.75;;;;;-9.36;100.00;100685.22;6249642;27;96416;-55
2024/01/09 06:28:34;;;;;;;;;64.60;48.40;;;;;-9.58;100.00;100681.66;6261455;27;96303;-56
2024/01/09 06:31:37;;;;;;;;;64.50;49.00;;;;;-9.51;100.00;100685.75;6257163;27;97085;-55
2024/01/09 06:34:40;;;;;;;;;63.67;50.33;;;;;-9.47;100.00;100686.47;6247853;27;96361;-55
2024/01/09 06:37:45;;;;;;;;;60.00;47.00;;;;;-9.47;100.00;100700.38;6247836;27;96324;-56
2024/01/09 06:40:48;;;;;;;;;62.60;48.60;;;;;-9.65;100.00;100693.19;6260385;27;96516;-55
2024/01/09 06:43:51;;;;;;;;;60.00;46.60;;;;;-9.60;100.00;100688.66;6264356;27;96430;-55
2024/01/09 06:46:54;;;;;;;;;60.75;47.25;;;;;-9.59;100.00;100695.59;6246790;27;96433;-58
2024/01/09 06:49:57;;;;;;;;;62.00;46.33;;;;;-9.69;100.00;100702.03;6270270;27;98422;-57
2024/01/09 06:53:03;;;;;;;;;61.00;46.00;;;;;-9.73;100.00;100697.81;6277590;27;96353;-57
2024/01/09 06:56:06;;;;;;;;;63.20;48.00;;;;;-9.52;100.00;100711.88;6243115;27;96864;-57
2024/01/09 06:59:09;;;;;;;;;62.00;48.00;;;;;-9.74;100.00;100717.84;6268061;27;96339;-57
2024/01/09 07:02:13;;;;;;;;;61.40;46.40;;;;;-9.68;100.00;100722.00;6266558;27;96409;-57
2024/01/09 07:05:16;;;;;;;;;59.60;46.00;;;;;-9.89;100.00;100720.09;6265547;27;96406;-57
2024/01/09 07:08:23;;;;;;;;;62.60;48.20;;;;;-10.72;100.00;100642.75;6325107;22;98527;-82
2024/01/09 07:11:27;;;;;;;;;58.00;45.60;;;;;-10.81;100.00;100565.72;6263525;27;97636;-83
2024/01/09 07:14:30;;;;;;;;;63.40;48.00;;;;;-10.85;100.00;100530.25;6238887;28;96658;-81
2024/01/09 07:17:34;;;;;;;;;58.25;46.25;;;;;-9.96;100.00;100633.31;6239148;28;96953;-81
2024/01/09 07:20:38;;;;;;;;;62.00;47.00;;;;;-10.16;100.00;100600.09;6242514;28;96872;-81
2024/01/09 07:23:44;;;;;;;;;64.00;49.50;;;;;-10.18;100.00;100611.50;6245628;28;96330;-82
2024/01/09 07:26:47;;;;;;;;;65.25;50.50;;;;;-9.79;100.00;100662.31;6245928;28;97051;-83
2024/01/09 07:29:51;;;;;;;;;60.60;47.00;;;;;-10.11;100.00;100545.13;6245174;28;96559;-81
2024/01/09 07:32:55;;;;;;;;;56.50;45.50;;;;;-9.61;100.00;100607.78;6247887;27;97155;-81
2024/01/09 07:35:58;;;;;;;;;62.40;47.40;;;;;-9.74;100.00;100558.63;6262239;27;97118;-82
2024/01/09 07:39:05;;;;;;;;;63.50;50.00;;;;;-9.57;100.00;100601.53;6250868;27;96617;-82
2024/01/09 07:42:09;;;;;;;;;65.60;48.00;;;;;-9.39;100.00;100567.81;6268048;27;96816;-82
2024/01/09 07:45:12;;;;;;;;;62.00;48.00;;;;;-8.16;100.00;100717.31;6251870;27;96564;-82
2024/01/09 07:48:16;;;;;;;;;61.20;48.00;;;;;-8.12;100.00;100673.59;6268474;27;97094;-82
2024/01/09 07:51:19;;;;;;;;;64.00;50.00;;;;;-9.02;100.00;100538.56;6252722;27;96671;-82
2024/01/09 07:58:01;;;;;;;;;63.00;48.00;;;;;-7.54;100.00;100740.16;6440874;23;99430;-55
2024/01/09 08:01:05;;;;;;;;;65.00;49.00;;;;;-7.63;100.00;100741.41;6012661;28;99451;-55
2024/01/09 08:04:08;;;;;;;;;68.00;51.60;;;;;-7.71;100.00;100740.84;6028753;28;96392;-55
2024/01/09 08:10:43;;;;;;;;;66.60;51.00;;;;;-7.75;100.00;100735.78;6027306;28;97409;-56
2024/01/09 08:13:48;;;;;;;;;61.80;49.40;;;;;-7.41;100.00;100736.13;6028788;29;96467;-58
2024/01/09 08:16:51;;;;;;;;;63.40;48.00;;;;;-7.14;100.00;100744.59;6029023;29;96521;-56
2024/01/09 08:19:54;;;;;;;;;61.75;48.00;;;;;-7.10;100.00;100739.16;6011882;29;98730;-55
2024/01/09 08:22:58;;;;;;;;;57.80;46.00;;;;;-6.81;100.00;100745.75;6028811;28;96962;-55
2024/01/09 08:26:02;;;;;;;;;57.80;44.40;;;;;-6.62;100.00;100736.16;6028914;28;96572;-56
2024/01/09 08:44:05;;;;;;;;;57.00;45.40;;;;;-2.90;94.37;100740.25;6003259;28;97375;-56
2024/01/09 08:47:08;;;;;;;;;62.20;48.40;;;;;-2.52;94.24;100750.28;6004094;28;96414;-56
2024/01/09 08:50:11;;;;;;;;;63.00;48.00;;;;;-2.65;91.69;100747.56;6019344;29;96379;-56
2024/01/09 08:53:15;;;;;;;;;65.00;50.00;;;;;-2.51;91.45;100746.72;6003596;29;98907;-56
2024/01/09 08:56:18;;;;;;;;;67.25;51.75;;;;;-1.93;85.51;100743.94;6003749;28;96707;-56
2024/01/09 08:59:23;;;;;;;;;67.40;52.00;;;;;-0.87;86.42;100737.75;6005633;28;96343;-56
2024/01/09 09:02:27;;;;;;;;;71.20;53.20;;;;;-0.11;76.93;100755.44;6005385;28;96393;-56
2024/01/09 09:05:30;;;;;;;;;67.20;52.00;;;;;1.20;76.67;100747.47;6005359;28;96418;-56
2024/01/09 09:08:36;;;;;;;;;67.00;52.00;;;;;2.75;74.53;100743.03;6336809;23;99126;-54
2024/01/09 09:11:40;;;;;;;;;67.50;52.25;;;;;4.30;76.66;100734.97;5977748;29;96942;-55
2024/01/09 09:14:44;;;;;;;;;70.25;53.00;;;;;5.64;64.06;100736.78;5977973;29;96388;-55
2024/01/09 09:17:48;;;;;;;;;67.00;52.00;;;;;6.89;59.95;100728.13;5979150;29;96281;-55
2024/01/09 09:20:51;;;;;;;;;68.60;53.00;;;;;7.90;55.33;100730.22;5978759;29;96395;-55
2024/01/09 09:23:54;;;;;;;;;68.00;51.40;;;;;8.91;52.52;100729.25;5977735;29;96400;-55
2024/01/09 09:26:57;;;;;;;;;67.40;51.60;;;;;9.64;45.09;100718.44;5976964;29;96321;-55
2024/01/09 09:30:04;;;;;;;;;66.40;51.00;;;;;10.17;47.05;100725.06;5976859;29;96362;-55
2024/01/09 09:33:08;;;;;;;;;64.20;50.00;;;;;10.85;43.55;100715.25;5976401;29;96720;-56
2024/01/09 09:36:13;;;;;;;;;64.20;49.80;;;;;11.19;43.53;100701.34;5976391;29;97066;-57
2024/01/09 09:39:17;;;;;;;;;67.00;51.00;;;;;12.10;41.63;100711.09;5977130;29;97065;-56
2024/01/09 09:42:22;;;;;;;;;72.00;54.60;;;;;12.48;35.47;100701.81;5976266;29;96709;-56
2024/01/09 09:45:30;;;;;;;;;66.00;50.25;;;;;12.95;37.44;100698.56;5975597;29;96400;-57
2024/01/09 09:48:34;;;;;;;;;65.75;50.75;;;;;13.57;37.22;100703.34;5976424;29;97010;-57
2024/01/09 09:51:38;;;;;;;;;68.00;52.00;;;;;13.73;32.92;100694.88;5976833;29;96565;-57
2024/01/09 09:54:43;;;;;;;;;65.50;50.50;;;;;14.32;34.63;100684.38;5974805;29;96450;-57
2024/01/09 09:57:47;;;;;;;;;65.60;51.60;;;;;14.93;33.79;100689.81;5975358;29;96701;-57
2024/01/09 10:00:54;;;;;;;;;66.00;51.00;;;;;15.57;33.61;100690.09;5974856;29;96992;-57
2024/01/09 10:04:03;;;;;;;;;68.60;53.20;;;;;16.28;33.68;100684.69;5975347;29;96381;-58
2024/01/09 10:07:08;;;;;;;;;68.40;53.00;;;;;17.35;32.14;100680.31;5975778;29;96316;-57
2024/01/09 10:10:13;;;;;;;;;68.00;53.00;;;;;18.25;30.81;100665.16;5977536;29;96310;-57
2024/01/09 10:13:16;;;;;;;;;72.40;57.00;;;;;18.68;29.42;100668.59;5976799;29;97597;-57
2024/01/09 10:16:21;;;;;;;;;72.00;57.00;;;;;19.33;29.04;100664.03;5975322;29;96718;-58
2024/01/09 10:19:24;;;;;;;;;73.00;57.00;;;;;20.02;27.81;100654.19;5999556;29;97087;-60
2024/01/09 11:30:28;;;;;;;;;65.60;50.00;;;;;18.96;24.37;100595.00;5854020;29;96594;-59
2024/01/09 11:33:35;;;;;;;;;63.00;48.60;;;;;18.77;25.19;100603.50;5839775;29;96309;-60
2024/01/09 11:36:39;;;;;;;;;58.40;47.20;;;;;18.64;25.75;100582.69;5840971;29;97416;-59
2024/01/09 11:39:46;;;;;;;;;60.75;48.00;;;;;19.64;26.12;100582.72;5844759;29;96496;-59
2024/01/09 11:42:51;;;;;;;;;64.60;50.00;;;;;19.58;24.42;100581.75;5843316;29;96589;-59
2024/01/09 11:45:56;;;;;;;;;58.00;46.00;;;;;19.95;25.35;100576.81;5859912;29;97386;-59
2024/01/09 11:48:59;;;;;;;;;60.00;47.00;;;;;20.18;24.61;100579.47;5845918;30;96384;-59
2024/01/09 11:52:03;;;;;;;;;61.00;46.00;;;;;19.89;24.11;100573.13;5845781;29;96399;-60
2024/01/09 11:55:07;;;;;;;;;62.25;48.75;;;;;19.27;24.33;100573.88;5873808;29;96380;-59
2024/01/09 11:58:11;;;;;;;;;62.75;49.00;;;;;19.18;25.06;100587.09;5845680;29;96370;-59
2024/01/09 12:01:15;;;;;;;;;66.50;49.75;;;;;16.91;25.33;100580.47;5844231;30;96530;-59
2024/01/09 12:04:18;;;;;;;;;62.60;48.60;;;;;16.16;25.60;100568.56;5866771;29;96989;-59
2024/01/09 12:07:22;;;;;;;;;65.00;48.00;;;;;16.87;27.72;100580.06;5855729;29;98541;-59
2024/01/09 12:10:25;;;;;;;;;65.40;50.40;;;;;17.26;27.66;100555.19;5847166;30;96321;-59
2024/01/09 12:13:35;;;;;;;;;64.00;51.00;;;;;16.81;26.70;100580.97;5845144;30;97027;-59
2024/01/09 12:16:40;;;;;;;;;66.80;50.60;;;;;16.66;27.22;100575.84;5845658;29;96361;-59
2024/01/09 12:19:44;;;;;;;;;62.40;49.80;;;;;15.99;27.40;100573.66;5844025;29;96289;-59
2024/01/09 12:22:47;;;;;;;;;65.00;50.60;;;;;15.01;28.67;100578.22;5841613;29;97274;-59
2024/01/09 12:25:51;;;;;;;;;66.40;52.00;;;;;14.32;28.96;100572.28;5840572;30;96741;-59
2024/01/09 12:28:55;;;;;;;;;67.00;51.20;;;;;14.14;31.00;100572.03;5840883;30;96895;-58
2024/01/09 12:31:59;;;;;;;;;63.40;50.00;;;;;13.89;31.25;100564.44;5838313;29;96689;-59
2024/01/09 12:35:04;;;;;;;;;65.60;51.20;;;;;13.71;32.58;100553.31;5837800;30;96425;-59
2024/01/09 12:38:08;;;;;;;;;61.40;47.20;;;;;13.22;32.29;100550.72;5836576;29;98803;-59
2024/01/09 12:41:11;;;;;;;;;60.80;46.00;;;;;12.97;33.51;100558.44;5835948;30;96816;-59
2024/01/09 12:44:14;;;;;;;;;62.00;47.00;;;;;12.56;35.44;100565.56;5850371;29;98587;-59
2024/01/09 12:47:19;;;;;;;;;61.00;48.00;;;;;11.82;35.65;100558.72;5865905;29;96520;-59
2024/01/09 12:50:28;;;;;;;;;64.50;49.50;;;;;10.26;36.64;100575.78;5837652;30;96947;-59
2024/01/09 12:53:32;;;;;;;;;64.60;50.40;;;;;9.35;40.30;100583.56;5842134;29;96357;-59
2024/01/09 12:56:36;;;;;;;;;61.00;47.00;;;;;7.70;42.68;100591.81;5843306;29;96697;-59
2024/01/09 12:59:39;;;;;;;;;61.00;47.00;;;;;6.62;45.28;100596.84;5842408;30;96548;-59
2024/01/09 13:02:44;;;;;;;;;60.00;47.00;;;;;5.49;49.02;100591.94;5839802;29;96750;-58
2024/01/09 13:05:47;;;;;;;;;62.20;48.00;;;;;4.64;52.29;100596.53;5856150;29;96312;-58
2024/01/09 13:08:51;;;;;;;;;62.00;47.60;;;;;4.34;54.40;100593.03;5836424;29;96907;-58
2024/01/09 13:11:54;;;;;;;;;60.00;47.60;;;;;3.69;55.53;100593.63;5835144;30;97104;-58
2024/01/09 13:14:57;;;;;;;;;60.40;48.00;;;;;3.43;57.49;100601.25;5834898;30;96858;-58
2024/01/09 13:18:01;;;;;;;;;62.60;48.20;;;;;2.98;59.49;100600.75;5833673;29;97174;-58
2024/01/09 13:21:05;;;;;;;;;62.20;50.00;;;;;2.29;61.88;100612.03;5840515;30;97128;-57
2024/01/09 13:24:09;;;;;;;;;64.20;50.60;;;;;2.06;63.15;100603.25;5858235;29;96668;-57
2024/01/09 13:27:12;;;;;;;;;61.00;47.00;;;;;2.14;63.63;100611.47;5843280;29;96280;-58
2024/01/09 13:30:16;;;;;;;;;67.25;50.00;;;;;1.65;64.89;100607.50;5841489;30;96303;-57
2024/01/09 13:33:23;;;;;;;;;63.00;48.00;;;;;1.62;65.71;100612.19;5852687;29;98397;-57
2024/01/09 13:36:26;;;;;;;;;63.60;50.00;;;;;1.32;67.05;100628.75;5854066;29;96410;-57
2024/01/09 13:39:30;;;;;;;;;64.00;50.00;;;;;1.13;67.98;100620.53;5851643;29;96752;-57
2024/01/09 13:42:33;;;;;;;;;65.50;50.50;;;;;0.32;71.43;100612.63;5854602;29;98666;-57
2024/01/09 13:45:37;;;;;;;;;62.00;48.00;;;;;0.49;71.86;100606.88;5849710;29;96579;-57
2024/01/09 13:48:42;;;;;;;;;67.00;51.00;;;;;0.43;72.45;100584.31;5839623;29;96583;-56
2024/01/09 13:51:45;;;;;;;;;65.40;51.00;;;;;0.48;74.28;100591.94;5829047;29;96318;-57
2024/01/09 13:54:57;;;;;;;;;63.00;48.60;;;;;-0.03;75.03;100597.50;5849809;29;96823;-56
2024/01/09 13:58:00;;;;;;;;;64.80;51.20;;;;;-0.04;75.86;100594.94;5846815;29;96474;-56
2024/01/09 14:01:04;;;;;;;;;66.75;50.00;;;;;-0.32;76.62;100605.88;5831990;29;96908;-57
2024/01/09 14:04:11;;;;;;;;;67.00;51.00;;;;;-0.45;78.46;100593.53;5825816;29;96782;-57
2024/01/09 14:07:15;;;;;;;;;66.75;51.25;;;;;-0.59;78.02;100606.06;5822807;29;96999;-58
2024/01/09 14:10:18;;;;;;;;;64.60;49.00;;;;;-0.61;78.32;100600.88;5827024;29;96663;-56
2024/01/09 14:13:21;;;;;;;;;62.50;50.00;;;;;-1.11;80.16;100595.59;5826687;29;97077;-56
2024/01/09 14:16:24;;;;;;;;;64.40;50.00;;;;;-1.41;80.17;100609.13;5850047;29;96622;-56
2024/01/09 14:19:30;;;;;;;;;64.00;50.00;;;;;-1.45;81.00;100597.94;5830750;29;96737;-57
2024/01/09 14:22:33;;;;;;;;;64.50;49.25;;;;;-1.48;82.07;100603.44;5827672;29;96626;-56
2024/01/09 14:25:36;;;;;;;;;61.60;47.60;;;;;-1.74;82.01;100585.81;5819291;29;96571;-57
2024/01/09 14:28:43;;;;;;;;;63.00;47.00;;;;;-2.05;87.18;100581.69;5828432;29;96526;-56
2024/01/09 14:31:46;;;;;;;;;64.00;49.20;;;;;-2.25;87.50;100587.47;5819842;30;96637;-56
2024/01/09 14:34:51;;;;;;;;;61.50;48.50;;;;;-2.64;89.90;100577.66;5819581;29;96357;-56
2024/01/09 14:37:55;;;;;;;;;63.00;48.80;;;;;-3.06;89.56;100549.50;5822874;29;97512;-57
2024/01/09 14:40:58;;;;;;;;;62.20;48.00;;;;;-3.07;90.34;100595.28;5820192;30;96443;-56
2024/01/09 14:44:01;;;;;;;;;62.20;48.00;;;;;-3.17;90.05;100597.63;5818644;29;96438;-57
2024/01/09 14:47:05;;;;;;;;;62.40;49.00;;;;;-3.46;92.60;100584.50;5826582;29;96464;-56
2024/01/09 14:50:10;;;;;;;;;66.00;51.00;;;;;-3.74;93.60;100594.03;5833244;29;96876;-56
2024/01/09 14:53:13;;;;;;;;;64.25;48.25;;;;;-3.93;95.53;100598.69;5826696;29;96380;-56
2024/01/09 14:56:20;;;;;;;;;63.25;50.00;;;;;-4.03;96.23;100597.53;5842283;29;97588;-56
2024/01/09 14:59:23;;;;;;;;;63.00;49.00;;;;;-4.29;98.70;100588.47;5828784;29;96341;-57
2024/01/09 15:02:26;;;;;;;;;67.40;50.40;;;;;-4.44;99.77;100598.06;5819525;29;96934;-57
2024/01/09 15:05:31;;;;;;;;;70.00;53.00;;;;;-4.58;100.00;100587.44;5835769;29;96551;-57
2024/01/09 15:08:36;;;;;;;;;64.40;51.00;;;;;-4.83;100.00;100572.16;5838405;29;96722;-56
2024/01/09 15:11:39;;;;;;;;;67.00;51.60;;;;;-4.73;100.00;100585.66;5832846;29;96406;-56
2024/01/09 15:14:42;;;;;;;;;64.75;50.75;;;;;-4.96;100.00;100583.44;5834436;29;96580;-56
2024/01/09 15:17:46;;;;;;;;;68.50;52.00;;;;;-5.13;100.00;100586.13;5822044;29;96519;-56
2024/01/09 15:20:52;;;;;;;;;67.60;50.00;;;;;-5.16;100.00;100595.00;5815463;29;97595;-56
2024/01/09 15:23:56;;;;;;;;;67.00;51.00;;;;;-5.23;100.00;100606.78;5823923;29;97564;-57